Time;durP1;ratioP1;P1;durP2;ratioP2;P2;SDS_P1;SDS_P2;PMS_P1;PMS_P2;Temp;Humidity;BMP_temperature;BMP_pressure;BME280_temperature;BME280_humidity;BME280_pressure;Samples;Min_cycle;Max_cycle;Signal;HPM_P1;HPM_P2
2021/08/25 00:00:50;;;;;;;5.55;3.25;;;22.50;56.00;;;;;;3131184;28;20049;-86
2021/08/25 00:02:20;;;;;;;5.57;3.60;;;22.50;56.00;;;;;;3130290;28;20049;-86
2021/08/25 00:03:52;;;;;;;4.60;3.35;;;22.50;56.10;;;;;;3131704;28;20045;-86
2021/08/25 00:05:24;;;;;;;4.38;3.40;;;22.50;56.10;;;;;;3132595;28;20040;-86
2021/08/25 00:06:56;;;;;;;4.88;3.40;;;22.50;56.10;;;;;;3123244;28;20431;-86
2021/08/25 00:08:29;;;;;;;5.05;3.72;;;22.50;56.10;;;;;;3124259;28;20042;-86
2021/08/25 00:09:59;;;;;;;4.90;3.63;;;22.50;56.10;;;;;;3128007;28;20056;-86
2021/08/25 00:11:31;;;;;;;5.22;3.60;;;22.50;56.10;;;;;;3134565;28;20049;-85
2021/08/25 00:13:06;;;;;;;4.85;3.50;;;22.50;56.10;;;;;;3132198;28;20070;-86
2021/08/25 00:14:38;;;;;;;6.18;3.38;;;22.40;56.10;;;;;;3131965;28;20098;-85
2021/08/25 00:16:10;;;;;;;4.33;3.33;;;22.50;56.10;;;;;;3121888;28;20103;-86
2021/08/25 00:17:42;;;;;;;4.47;3.10;;;22.40;56.00;;;;;;3122782;28;20308;-86
2021/08/25 00:19:13;;;;;;;5.18;3.80;;;22.40;56.10;;;;;;3130706;28;20036;-85
2021/08/25 00:20:45;;;;;;;5.25;3.63;;;22.40;56.10;;;;;;3124334;28;20064;-86
2021/08/25 00:22:17;;;;;;;4.18;3.47;;;22.40;56.10;;;;;;3130823;28;20045;-85
2021/08/25 00:23:50;;;;;;;3.92;3.22;;;22.40;56.10;;;;;;3122858;28;20123;-86
2021/08/25 00:25:22;;;;;;;5.22;3.65;;;22.40;56.20;;;;;;3127149;28;20067;-87
2021/08/25 00:26:54;;;;;;;4.32;3.30;;;22.40;56.20;;;;;;3135237;28;20049;-85
2021/08/25 00:28:26;;;;;;;5.50;3.20;;;22.40;56.10;;;;;;3130515;28;20072;-85
2021/08/25 00:29:57;;;;;;;5.28;3.45;;;22.30;56.10;;;;;;3123325;28;20626;-85
2021/08/25 00:31:28;;;;;;;5.32;3.70;;;22.40;56.10;;;;;;3128093;28;20045;-85
2021/08/25 00:33:00;;;;;;;4.18;3.30;;;22.30;56.20;;;;;;3132771;28;20463;-86
2021/08/25 00:34:32;;;;;;;4.68;3.75;;;22.40;56.20;;;;;;3135148;28;20049;-85
2021/08/25 00:36:04;;;;;;;4.65;3.42;;;22.30;56.10;;;;;;3134236;28;20045;-85
2021/08/25 00:37:36;;;;;;;4.47;3.45;;;22.30;56.10;;;;;;3134967;28;20052;-85
2021/08/25 00:39:09;;;;;;;4.68;3.70;;;22.30;56.10;;;;;;3125621;28;20049;-86
2021/08/25 00:40:43;;;;;;;4.50;3.47;;;22.30;56.10;;;;;;3124528;28;20073;-86
2021/08/25 00:42:14;;;;;;;5.38;3.90;;;22.30;56.20;;;;;;3130365;28;20084;-86
2021/08/25 00:43:46;;;;;;;4.50;3.70;;;22.30;56.20;;;;;;3122596;28;20053;-86
2021/08/25 00:45:18;;;;;;;4.25;3.20;;;22.30;56.20;;;;;;3127678;28;20044;-85
2021/08/25 00:46:50;;;;;;;4.80;3.35;;;22.30;56.20;;;;;;3122793;28;20053;-84
2021/08/25 00:48:21;;;;;;;6.55;3.55;;;22.30;56.20;;;;;;3123297;28;20080;-86
2021/08/25 00:49:53;;;;;;;4.25;3.50;;;22.30;56.20;;;;;;3133533;28;20051;-85
2021/08/25 00:51:24;;;;;;;6.05;3.17;;;22.30;56.20;;;;;;3126852;28;20048;-85
2021/08/25 00:52:56;;;;;;;4.03;3.25;;;22.30;56.20;;;;;;3129768;28;20048;-86
2021/08/25 00:54:29;;;;;;;4.55;3.42;;;22.30;56.20;;;;;;3131116;28;20462;-86
2021/08/25 00:56:01;;;;;;;4.82;3.30;;;22.30;56.20;;;;;;3134353;28;20522;-85
2021/08/25 00:57:35;;;;;;;4.22;3.25;;;22.30;56.20;;;;;;3133911;28;20095;-85
2021/08/25 00:59:07;;;;;;;4.45;3.55;;;22.30;56.20;;;;;;3134045;28;20565;-86
2021/08/25 01:00:43;;;;;;;4.68;3.63;;;22.30;56.20;;;;;;3126805;28;20053;-85
2021/08/25 01:02:17;;;;;;;4.07;3.33;;;22.20;56.20;;;;;;3129853;28;20041;-86
2021/08/25 01:03:50;;;;;;;4.88;3.80;;;22.30;56.30;;;;;;3134375;28;20053;-85
2021/08/25 01:05:22;;;;;;;4.22;3.25;;;22.20;56.20;;;;;;3134024;28;20056;-86
2021/08/25 01:06:54;;;;;;;3.90;3.10;;;22.20;56.20;;;;;;3133187;28;20045;-85
2021/08/25 01:08:26;;;;;;;5.05;3.75;;;22.20;56.20;;;;;;3132857;28;20040;-86
2021/08/25 01:10:00;;;;;;;4.13;3.40;;;22.20;56.20;;;;;;3134511;28;20114;-86
2021/08/25 01:11:31;;;;;;;4.38;3.40;;;22.20;56.30;;;;;;3134238;28;20116;-86
2021/08/25 01:13:03;;;;;;;4.70;3.60;;;22.20;56.80;;;;;;3123029;28;20404;-86
2021/08/25 01:14:35;;;;;;;4.30;3.80;;;22.20;56.30;;;;;;3130177;28;20056;-85
2021/08/25 01:16:08;;;;;;;4.47;3.55;;;22.20;56.30;;;;;;3129007;28;20507;-87
2021/08/25 01:17:40;;;;;;;4.70;3.40;;;22.20;56.30;;;;;;3129199;28;20049;-86
2021/08/25 01:19:15;;;;;;;4.88;3.42;;;22.20;56.30;;;;;;3129630;28;20044;-85
2021/08/25 01:20:47;;;;;;;6.97;4.07;;;22.20;56.30;;;;;;3124496;28;20179;-85
2021/08/25 01:22:20;;;;;;;3.83;3.30;;;22.20;56.30;;;;;;3122529;28;20054;-85
2021/08/25 01:23:51;;;;;;;4.90;3.53;;;22.10;56.20;;;;;;3123445;28;20083;-86
2021/08/25 01:25:25;;;;;;;3.90;3.50;;;22.10;56.20;;;;;;3133429;28;20048;-85
2021/08/25 01:26:57;;;;;;;3.97;3.17;;;22.20;56.30;;;;;;3132403;28;20049;-85
2021/08/25 01:28:31;;;;;;;4.53;3.50;;;22.10;56.20;;;;;;3121926;28;20096;-86
2021/08/25 01:30:05;;;;;;;4.60;3.25;;;22.10;56.30;;;;;;3126078;28;20403;-85
2021/08/25 01:31:36;;;;;;;4.82;3.55;;;22.10;56.30;;;;;;3125224;28;20045;-85
2021/08/25 01:33:18;;;;;;;4.03;3.60;;;22.10;56.30;;;;;;3122383;28;20042;-85
2021/08/25 01:34:52;;;;;;;3.63;3.22;;;22.10;56.30;;;;;;3124674;28;20115;-85
2021/08/25 01:36:24;;;;;;;4.70;3.72;;;22.10;56.30;;;;;;3126534;28;20415;-86
2021/08/25 01:37:55;;;;;;;5.90;3.20;;;22.10;56.30;;;;;;3134350;28;20557;-85
2021/08/25 01:39:27;;;;;;;4.70;3.33;;;22.10;56.30;;;;;;3134477;28;20114;-85
2021/08/25 01:40:58;;;;;;;4.60;3.45;;;22.10;56.30;;;;;;3121884;28;20049;-85
2021/08/25 01:42:30;;;;;;;4.43;3.45;;;22.10;56.30;;;;;;3122281;28;20514;-86
2021/08/25 01:44:02;;;;;;;5.97;3.38;;;22.10;56.30;;;;;;3122129;28;20519;-85
2021/08/25 01:45:35;;;;;;;4.32;3.42;;;22.10;56.30;;;;;;3127375;28;20111;-85
2021/08/25 01:47:07;;;;;;;3.70;3.30;;;22.10;56.30;;;;;;3122109;28;20247;-86
2021/08/25 01:48:38;;;;;;;4.03;3.38;;;22.10;56.30;;;;;;3121831;28;20045;-85
2021/08/25 01:50:10;;;;;;;3.88;3.40;;;22.10;56.30;;;;;;3125704;28;20073;-86
2021/08/25 01:51:42;;;;;;;;;;;22.10;56.30;;;;;;3122545;28;20103;-86
2021/08/25 01:53:14;;;;;;;4.80;3.80;;;22.10;56.40;;;;;;3122193;28;20433;-85
2021/08/25 01:54:46;;;;;;;4.50;3.40;;;22.10;56.30;;;;;;3122403;28;20060;-86
2021/08/25 01:56:17;;;;;;;4.50;3.20;;;22.00;56.20;;;;;;3125940;28;20041;-86
2021/08/25 01:57:51;;;;;;;4.47;3.15;;;22.10;56.30;;;;;;3126036;28;20102;-86
2021/08/25 01:59:22;;;;;;;4.57;3.10;;;22.00;56.30;;;;;;3124078;28;20053;-85
2021/08/25 02:00:56;;;;;;;4.85;3.63;;;22.00;56.30;;;;;;3126273;28;20041;-85
2021/08/25 02:02:27;;;;;;;3.83;3.10;;;22.00;56.30;;;;;;3127899;28;20053;-86
2021/08/25 02:04:01;;;;;;;4.63;3.42;;;22.00;56.30;;;;;;3134536;28;20849;-85
2021/08/25 02:05:33;;;;;;;4.30;3.40;;;22.00;56.40;;;;;;3133859;28;20451;-86
2021/08/25 02:07:05;;;;;;;5.53;4.00;;;22.00;56.30;;;;;;3131688;28;20511;-86
2021/08/25 02:08:36;;;;;;;4.43;3.58;;;22.00;56.30;;;;;;3122625;28;20053;-85
2021/08/25 02:10:08;;;;;;;4.90;3.33;;;22.00;56.40;;;;;;3128785;28;20041;-86
2021/08/25 02:11:40;;;;;;;4.38;3.30;;;22.00;56.30;;;;;;3135273;28;20053;-86
2021/08/25 02:13:12;;;;;;;3.80;3.15;;;22.00;56.30;;;;;;3136207;28;20072;-85
2021/08/25 02:14:43;;;;;;;5.60;3.47;;;22.00;56.30;;;;;;3126163;28;20049;-86
2021/08/25 02:16:17;;;;;;;4.22;3.40;;;22.00;56.30;;;;;;3126569;28;20099;-85
2021/08/25 02:17:48;;;;;;;5.75;3.33;;;22.00;56.40;;;;;;3124545;28;20042;-85
2021/08/25 02:19:20;;;;;;;3.70;2.95;;;22.00;56.40;;;;;;3127701;28;20053;-86
2021/08/25 02:20:51;;;;;;;3.97;3.28;;;22.00;56.40;;;;;;3131944;28;20049;-86
2021/08/25 02:22:23;;;;;;;4.22;3.38;;;21.90;56.40;;;;;;3135754;28;20403;-85
2021/08/25 02:23:54;;;;;;;4.75;3.05;;;22.00;56.40;;;;;;3136802;28;20056;-86
2021/08/25 02:25:26;;;;;;;3.88;3.03;;;21.90;56.30;;;;;;3135761;28;20496;-85
2021/08/25 02:26:58;;;;;;;4.25;3.15;;;21.90;56.30;;;;;;3136656;28;20076;-85
2021/08/25 02:28:30;;;;;;;4.20;3.08;;;21.90;56.30;;;;;;3136386;28;20049;-85
2021/08/25 02:30:01;;;;;;;4.50;3.38;;;21.90;56.40;;;;;;3130566;28;20095;-84
2021/08/25 02:31:34;;;;;;;4.05;3.40;;;21.90;56.40;;;;;;3122511;28;20041;-85
2021/08/25 02:33:07;;;;;;;3.85;3.10;;;21.90;56.40;;;;;;3125787;28;20049;-86
2021/08/25 02:34:39;;;;;;;4.25;3.28;;;21.90;56.30;;;;;;3124112;28;20103;-85
2021/08/25 02:36:11;;;;;;;4.53;3.20;;;21.90;56.30;;;;;;3123793;28;20053;-86
2021/08/25 02:37:43;;;;;;;4.25;2.97;;;21.90;56.30;;;;;;3124312;28;20043;-85
2021/08/25 02:39:14;;;;;;;4.65;3.60;;;21.90;56.30;;;;;;3123830;28;20103;-86
2021/08/25 02:40:46;;;;;;;6.05;3.50;;;21.90;56.40;;;;;;3123365;28;20504;-85
2021/08/25 02:42:18;;;;;;;4.90;3.60;;;21.80;56.30;;;;;;3124707;28;20064;-85
2021/08/25 02:43:49;;;;;;;3.65;3.10;;;21.90;56.40;;;;;;3126902;28;20061;-85
2021/08/25 02:45:21;;;;;;;4.78;3.50;;;21.90;56.40;;;;;;3127418;28;20046;-86
2021/08/25 02:46:54;;;;;;;3.58;3.10;;;21.90;56.40;;;;;;3123987;28;20428;-84
2021/08/25 02:48:26;;;;;;;4.43;3.25;;;21.90;56.40;;;;;;3125460;28;20049;-85
2021/08/25 02:49:58;;;;;;;3.83;3.20;;;21.90;56.40;;;;;;3132771;28;20046;-85
2021/08/25 02:51:30;;;;;;;8.27;3.28;;;21.90;56.40;;;;;;3123247;28;20052;-85
2021/08/25 02:53:01;;;;;;;4.82;3.45;;;21.80;56.40;;;;;;3124072;28;20053;-86
2021/08/25 02:54:33;;;;;;;5.60;3.28;;;21.80;56.40;;;;;;3127043;28;20041;-85
2021/08/25 02:56:05;;;;;;;4.13;3.13;;;21.80;56.40;;;;;;3135863;28;20045;-86
2021/08/25 02:57:37;;;;;;;4.22;3.22;;;21.80;56.40;;;;;;3136502;28;20459;-86
2021/08/25 02:59:09;;;;;;;3.22;2.83;;;21.80;56.40;;;;;;3136140;28;20095;-85
2021/08/25 03:00:41;;;;;;;3.85;3.15;;;21.80;56.40;;;;;;3129092;28;20045;-84
2021/08/25 03:02:13;;;;;;;3.92;3.40;;;21.80;56.40;;;;;;3136271;28;20060;-85
2021/08/25 03:03:47;;;;;;;3.73;3.33;;;21.80;56.40;;;;;;3126140;28;20109;-86
2021/08/25 03:05:18;;;;;;;3.50;2.97;;;21.80;56.40;;;;;;3123314;28;20300;-86
2021/08/25 03:06:50;;;;;;;4.40;3.13;;;21.80;56.40;;;;;;3124894;28;20455;-85
2021/08/25 03:08:22;;;;;;;4.25;3.30;;;21.80;56.40;;;;;;3125322;28;20053;-86
2021/08/25 03:09:54;;;;;;;4.97;3.45;;;21.80;56.40;;;;;;3132248;28;20104;-85
2021/08/25 03:11:25;;;;;;;4.30;3.28;;;21.80;56.40;;;;;;3123580;28;20512;-86
2021/08/25 03:12:57;;;;;;;5.13;3.70;;;21.80;56.40;;;;;;3123813;28;20049;-85
2021/08/25 03:14:29;;;;;;;5.18;3.30;;;21.70;56.40;;;;;;3129526;28;20094;-86
2021/08/25 03:16:01;;;;;;;4.07;3.33;;;21.70;56.40;;;;;;3124879;28;20053;-85
2021/08/25 03:17:34;;;;;;;4.78;3.60;;;21.70;56.40;;;;;;3123885;28;20041;-86
2021/08/25 03:19:05;;;;;;;3.78;3.30;;;21.70;56.40;;;;;;3128575;28;20056;-85
2021/08/25 03:20:37;;;;;;;3.97;2.90;;;21.70;56.40;;;;;;3125932;28;20049;-86
2021/08/25 03:22:09;;;;;;;3.67;3.10;;;21.70;56.40;;;;;;3125025;28;20053;-85
2021/08/25 03:23:40;;;;;;;4.20;3.30;;;21.70;56.40;;;;;;3123760;28;20045;-85
2021/08/25 03:25:12;;;;;;;4.78;3.28;;;21.70;56.40;;;;;;3123765;28;20045;-86
2021/08/25 03:26:44;;;;;;;4.35;3.38;;;21.70;56.40;;;;;;3123999;28;20053;-85
2021/08/25 03:28:16;;;;;;;3.92;3.22;;;21.70;56.40;;;;;;3123296;28;20057;-86
2021/08/25 03:29:47;;;;;;;3.58;3.20;;;21.70;56.40;;;;;;3124190;28;20430;-85
2021/08/25 03:31:19;;;;;;;3.63;3.20;;;21.70;56.40;;;;;;3124042;28;20042;-85
2021/08/25 03:32:52;;;;;;;5.22;3.33;;;21.70;56.40;;;;;;3129731;28;20079;-85
2021/08/25 03:34:23;;;;;;;3.80;3.08;;;21.70;56.40;;;;;;3133168;28;20118;-85
2021/08/25 03:35:55;;;;;;;4.35;3.22;;;21.70;56.40;;;;;;3135124;28;20045;-85
2021/08/25 03:37:26;;;;;;;4.13;3.50;;;21.70;56.40;;;;;;3130568;28;20045;-86
2021/08/25 03:38:58;;;;;;;4.45;3.40;;;21.70;56.40;;;;;;3128413;28;20048;-85
2021/08/25 03:40:30;;;;;;;4.47;3.55;;;21.70;56.40;;;;;;3135139;28;20053;-86
2021/08/25 03:42:02;;;;;;;4.10;3.20;;;21.70;56.40;;;;;;3135534;28;20060;-88
2021/08/25 03:43:33;;;;;;;4.07;3.10;;;21.70;56.40;;;;;;3136317;28;20061;-85
2021/08/25 03:45:05;;;;;;;4.18;3.38;;;21.60;56.40;;;;;;3135270;28;20547;-85
2021/08/25 03:46:37;;;;;;;3.65;3.03;;;21.70;56.40;;;;;;3135892;28;20472;-86
2021/08/25 03:48:10;;;;;;;3.83;3.20;;;21.60;56.40;;;;;;3135794;28;20535;-89
2021/08/25 03:49:42;;;;;;;3.83;3.20;;;21.60;56.40;;;;;;3136108;28;20056;-87
2021/08/25 03:51:14;;;;;;;4.40;3.28;;;21.70;56.50;;;;;;3124496;28;20052;-85
2021/08/25 03:52:46;;;;;;;4.93;3.30;;;21.60;56.40;;;;;;3136510;28;20053;-85
2021/08/25 03:54:17;;;;;;;4.18;3.15;;;21.60;56.50;;;;;;3136265;28;20072;-85
2021/08/25 03:55:49;;;;;;;4.20;2.83;;;21.60;56.50;;;;;;3135558;28;20045;-85
2021/08/25 03:57:21;;;;;;;3.67;2.85;;;21.70;56.50;;;;;;3135773;28;20065;-85
2021/08/25 03:58:53;;;;;;;4.55;3.40;;;21.60;56.40;;;;;;3135862;28;20055;-86
2021/08/25 04:00:24;;;;;;;4.00;3.05;;;21.60;56.40;;;;;;3135612;28;20126;-86
2021/08/25 04:01:56;;;;;;;4.18;3.30;;;21.60;56.40;;;;;;3136860;28;20053;-85
2021/08/25 04:03:28;;;;;;;3.40;2.85;;;21.60;56.40;;;;;;3135908;28;20049;-85
2021/08/25 04:05:00;;;;;;;3.95;3.10;;;21.60;56.30;;;;;;3128118;28;20124;-85
2021/08/25 04:06:32;;;;;;;5.03;3.28;;;21.70;56.10;;;;;;3131618;28;20041;-85
2021/08/25 04:08:04;;;;;;;4.03;2.97;;;21.80;55.70;;;;;;3133454;28;20049;-86
2021/08/25 04:09:36;;;;;;;3.60;2.97;;;21.90;55.60;;;;;;3124114;28;20087;-85
2021/08/25 04:11:08;;;;;;;4.53;3.00;;;22.00;55.30;;;;;;3123933;28;20103;-85
2021/08/25 04:12:40;;;;;;;3.97;3.30;;;22.00;55.20;;;;;;3131774;28;20550;-86
2021/08/25 04:14:11;;;;;;;3.67;2.90;;;22.00;55.20;;;;;;3124103;28;20073;-87
2021/08/25 04:15:43;;;;;;;3.80;2.97;;;22.00;55.30;;;;;;3129338;28;20049;-85
2021/08/25 04:17:15;;;;;;;3.75;3.03;;;22.00;55.40;;;;;;3135932;28;20045;-85
2021/08/25 04:18:48;;;;;;;4.28;3.20;;;22.00;55.30;;;;;;3134471;28;20130;-85
2021/08/25 04:20:20;;;;;;;3.70;3.20;;;22.00;55.40;;;;;;3127782;28;20049;-86
2021/08/25 04:21:52;;;;;;;3.30;2.55;;;22.00;55.30;;;;;;3134082;28;20053;-88
2021/08/25 04:23:23;;;;;;;3.88;3.03;;;22.00;55.30;;;;;;3136433;28;20109;-85
2021/08/25 04:24:55;;;;;;;4.47;2.92;;;22.00;55.20;;;;;;3132653;28;20049;-85
2021/08/25 04:26:27;;;;;;;3.90;3.20;;;22.00;55.20;;;;;;3128361;28;20047;-85
2021/08/25 04:27:59;;;;;;;5.85;3.10;;;22.00;55.30;;;;;;3136166;28;20049;-85
2021/08/25 04:29:30;;;;;;;3.40;2.90;;;22.10;55.20;;;;;;3135545;28;20052;-86
2021/08/25 04:31:02;;;;;;;4.30;3.20;;;22.10;55.80;;;;;;3133382;28;20048;-87
2021/08/25 04:32:34;;;;;;;5.05;3.03;;;22.10;55.10;;;;;;3128334;28;20057;-85
2021/08/25 04:34:07;;;;;;;3.33;3.00;;;22.10;55.10;;;;;;3124422;28;20052;-85
2021/08/25 04:35:39;;;;;;;4.20;2.92;;;22.10;55.10;;;;;;3128323;28;20058;-86
2021/08/25 04:37:11;;;;;;;4.10;2.97;;;22.10;55.10;;;;;;3123999;28;20099;-87
2021/08/25 04:38:41;;;;;;;3.50;2.78;;;22.10;54.90;;;;;;3123059;28;20068;-85
2021/08/25 04:40:13;;;;;;;3.72;2.92;;;22.20;54.90;;;;;;3123855;28;20123;-85
2021/08/25 04:41:45;;;;;;;3.40;2.92;;;22.10;54.90;;;;;;3115711;28;20103;-86
2021/08/25 04:43:17;;;;;;;5.13;3.10;;;22.20;54.80;;;;;;3123261;28;20599;-85
2021/08/25 04:44:48;;;;;;;3.80;3.10;;;22.20;54.90;;;;;;3123357;28;20697;-86
2021/08/25 04:46:20;;;;;;;4.30;2.88;;;22.20;54.90;;;;;;3127147;28;20047;-85
2021/08/25 04:47:52;;;;;;;3.63;2.85;;;22.20;54.90;;;;;;3132345;28;20063;-86
2021/08/25 04:49:25;;;;;;;3.35;2.50;;;22.20;54.90;;;;;;3130850;28;20045;-86
2021/08/25 04:50:57;;;;;;;3.28;2.88;;;22.10;55.00;;;;;;3126813;28;20098;-85
2021/08/25 04:52:29;;;;;;;4.72;2.83;;;22.20;54.80;;;;;;3134929;28;20079;-85
2021/08/25 04:54:00;;;;;;;5.70;2.90;;;22.20;54.80;;;;;;3136694;28;20054;-86
2021/08/25 04:55:32;;;;;;;4.00;3.00;;;22.20;54.80;;;;;;3128784;28;20049;-85
2021/08/25 04:57:04;;;;;;;3.60;2.80;;;22.10;54.90;;;;;;3123910;28;20045;-86
2021/08/25 04:58:36;;;;;;;3.42;2.90;;;22.20;54.90;;;;;;3123281;28;20056;-85
2021/08/25 05:00:09;;;;;;;3.67;2.78;;;22.20;54.90;;;;;;3124754;28;20045;-85
2021/08/25 05:01:41;;;;;;;;;;;22.20;54.90;;;;;;3125404;28;20045;-85
2021/08/25 05:03:12;;;;;;;4.03;2.60;;;22.20;54.80;;;;;;3123461;28;20441;-86
2021/08/25 05:04:47;;;;;;;3.55;2.90;;;22.20;54.70;;;;;;3123870;28;20095;-86
2021/08/25 05:06:18;;;;;;;3.78;2.88;;;22.20;54.80;;;;;;3126623;28;20111;-86
2021/08/25 05:07:49;;;;;;;3.85;2.85;;;22.20;54.90;;;;;;3126809;28;20154;-88
2021/08/25 05:09:21;;;;;;;3.53;2.90;;;22.20;54.90;;;;;;3128139;28;20049;-85
2021/08/25 05:10:53;;;;;;;4.57;3.10;;;22.20;55.00;;;;;;3135045;28;20122;-86
2021/08/25 05:12:24;;;;;;;3.20;2.90;;;22.20;55.00;;;;;;3134361;28;20079;-86
2021/08/25 05:13:56;;;;;;;3.90;2.72;;;22.20;55.00;;;;;;3133742;28;20060;-85
2021/08/25 05:15:28;;;;;;;3.97;3.00;;;22.20;55.00;;;;;;3128180;28;20424;-85
2021/08/25 05:17:00;;;;;;;4.43;3.10;;;22.20;55.00;;;;;;3135954;28;20052;-85
2021/08/25 05:18:32;;;;;;;3.67;2.97;;;22.20;54.90;;;;;;3134712;28;20055;-85
2021/08/25 05:20:07;;;;;;;4.10;2.95;;;22.20;54.80;;;;;;3131279;28;20299;-85
2021/08/25 05:21:39;;;;;;;3.05;2.65;;;22.20;55.00;;;;;;3128852;28;20803;-85
2021/08/25 05:23:11;;;;;;;3.60;2.88;;;22.20;55.10;;;;;;3135755;28;20048;-87
2021/08/25 05:24:43;;;;;;;3.78;2.90;;;22.20;55.10;;;;;;3135687;28;20139;-85
2021/08/25 05:26:14;;;;;;;4.15;2.85;;;22.30;55.00;;;;;;3134184;28;20057;-86
2021/08/25 05:27:50;;;;;;;3.78;2.88;;;22.20;55.10;;;;;;3135170;28;20502;-84
2021/08/25 05:29:22;;;;;;;3.65;2.83;;;22.20;55.20;;;;;;3133071;28;20049;-85
2021/08/25 05:30:54;;;;;;;3.50;2.90;;;22.20;55.10;;;;;;3121778;28;20499;-86
2021/08/25 05:32:26;;;;;;;3.03;2.50;;;22.20;55.10;;;;;;3123079;28;20046;-86
2021/08/25 05:33:58;;;;;;;4.82;2.83;;;22.20;55.10;;;;;;3134449;28;20504;-86
2021/08/25 05:35:31;;;;;;;3.58;2.90;;;22.30;55.10;;;;;;3128584;28;20079;-85
2021/08/25 05:37:03;;;;;;;4.35;2.67;;;22.30;55.10;;;;;;3133553;28;20045;-85
2021/08/25 05:38:35;;;;;;;4.82;3.45;;;22.30;55.20;;;;;;3122030;28;20077;-85
2021/08/25 05:40:08;;;;;;;4.28;3.50;;;22.30;55.30;;;;;;3123369;28;20045;-84
2021/08/25 05:41:40;;;;;;;4.25;2.72;;;22.30;55.30;;;;;;3122611;28;20058;-87
2021/08/25 05:43:11;;;;;;;5.15;2.70;;;22.30;55.40;;;;;;3122619;28;20049;-84
2021/08/25 05:44:43;;;;;;;6.30;2.75;;;22.30;55.30;;;;;;3126342;28;20488;-84
2021/08/25 05:46:15;;;;;;;5.40;3.00;;;22.30;55.40;;;;;;3128877;28;20048;-84
2021/08/25 05:47:47;;;;;;;3.97;3.00;;;22.30;55.40;;;;;;3125500;28;20060;-84
2021/08/25 05:49:19;;;;;;;3.58;2.72;;;22.30;55.30;;;;;;3133727;28;20292;-85
2021/08/25 05:50:52;;;;;;;4.00;3.08;;;22.30;55.50;;;;;;3128411;28;20046;-84
2021/08/25 05:52:24;;;;;;;5.15;2.83;;;22.20;55.70;;;;;;3137645;28;20053;-84
2021/08/25 05:53:55;;;;;;;5.10;3.10;;;22.20;56.20;;;;;;3137296;28;20060;-84
2021/08/25 05:55:27;;;;;;;5.10;3.10;;;22.20;56.30;;;;;;3125648;28;20041;-85
2021/08/25 05:56:59;;;;;;;7.85;3.78;;;22.10;56.80;;;;;;3125254;28;20080;-85
2021/08/25 05:58:31;;;;;;;6.07;3.38;;;22.10;57.50;;;;;;3125253;28;20103;-86
2021/08/25 06:00:03;;;;;;;7.47;4.15;;;22.10;57.90;;;;;;3132098;28;20686;-84
2021/08/25 06:01:34;;;;;;;9.35;4.22;;;22.10;58.00;;;;;;3123091;28;20104;-84
2021/08/25 06:03:10;;;;;;;14.63;4.53;;;22.10;58.60;;;;;;3134818;28;20045;-84
2021/08/25 06:04:42;;;;;;;14.68;4.75;;;22.10;59.60;;;;;;3137251;28;20128;-85
2021/08/25 06:06:15;;;;;;;13.75;4.32;;;22.10;59.90;;;;;;3136700;28;20064;-85
2021/08/25 06:07:46;;;;;;;24.08;4.80;;;22.20;60.70;;;;;;3137108;28;20427;-85
2021/08/25 06:09:18;;;;;;;11.63;4.20;;;22.30;60.30;;;;;;3136870;28;20106;-86
2021/08/25 06:10:50;;;;;;;16.33;4.82;;;22.40;60.30;;;;;;3128814;28;20041;-87
2021/08/25 06:12:22;;;;;;;20.50;6.28;;;22.40;60.10;;;;;;3128611;28;20503;-87
2021/08/25 06:13:54;;;;;;;19.48;6.57;;;22.60;60.20;;;;;;3130013;28;20428;-88
2021/08/25 06:15:25;;;;;;;26.30;8.13;;;22.70;59.90;;;;;;3133300;28;20740;-87
2021/08/25 06:16:57;;;;;;;22.08;8.40;;;22.80;59.50;;;;;;3124006;28;20553;-85
2021/08/25 06:18:29;;;;;;;25.97;8.50;;;22.80;59.30;;;;;;3125455;28;20511;-85
2021/08/25 06:20:01;;;;;;;24.10;8.00;;;23.00;59.10;;;;;;3133204;28;20386;-86
2021/08/25 06:21:34;;;;;;;20.80;8.50;;;23.10;58.90;;;;;;3129408;28;20045;-86
2021/08/25 06:23:06;;;;;;;21.95;8.27;;;23.10;58.80;;;;;;3124682;28;20128;-86
2021/08/25 06:24:38;;;;;;;18.98;7.35;;;23.20;58.70;;;;;;3124320;28;20484;-85
2021/08/25 06:26:10;;;;;;;17.20;7.47;;;23.20;58.70;;;;;;3123837;28;20057;-86
2021/08/25 06:27:41;;;;;;;16.55;7.38;;;23.30;58.60;;;;;;3125498;28;20063;-85
2021/08/25 06:29:16;;;;;;;15.65;6.55;;;23.30;58.70;;;;;;3124627;28;20075;-85
2021/08/25 06:30:47;;;;;;;20.58;6.40;;;23.30;58.60;;;;;;3115153;28;20050;-85
2021/08/25 06:32:19;;;;;;;16.23;6.05;;;23.40;58.50;;;;;;3124238;28;20054;-85
2021/08/25 06:33:51;;;;;;;20.13;5.55;;;23.40;58.50;;;;;;3126700;28;20049;-85
2021/08/25 06:35:23;;;;;;;16.00;6.30;;;23.50;58.40;;;;;;3122502;28;20132;-85
2021/08/25 06:36:56;;;;;;;13.70;5.27;;;23.50;58.40;;;;;;3123504;28;20046;-86
2021/08/25 06:38:28;;;;;;;10.18;4.55;;;23.50;58.00;;;;;;3130218;28;20041;-85
2021/08/25 06:40:00;;;;;;;10.27;4.78;;;23.50;58.10;;;;;;3132533;28;20045;-85
2021/08/25 06:41:32;;;;;;;11.75;4.45;;;23.50;58.10;;;;;;3123893;28;20064;-85
2021/08/25 06:43:04;;;;;;;13.13;4.38;;;23.50;58.00;;;;;;3124102;28;20049;-84
2021/08/25 06:44:35;;;;;;;13.07;4.30;;;23.50;58.10;;;;;;3133522;28;20060;-84
2021/08/25 06:46:07;;;;;;;8.60;3.75;;;23.40;58.20;;;;;;3131909;28;20055;-87
2021/08/25 06:47:39;;;;;;;10.67;3.90;;;23.50;58.40;;;;;;3135903;28;20496;-87
2021/08/25 06:49:11;;;;;;;10.20;3.88;;;23.50;58.10;;;;;;3124600;28;20339;-86
2021/08/25 06:50:43;;;;;;;6.32;3.42;;;23.50;58.20;;;;;;3129787;28;20454;-88
2021/08/25 06:52:16;;;;;;;7.97;3.70;;;23.50;57.90;;;;;;3133245;28;20052;-85
2021/08/25 06:53:47;;;;;;;8.07;3.42;;;23.50;57.80;;;;;;3135704;28;20050;-88
2021/08/25 06:55:19;;;;;;;5.05;3.10;;;23.60;57.60;;;;;;3126076;28;20086;-85
2021/08/25 06:56:51;;;;;;;5.15;2.92;;;23.60;57.50;;;;;;3133580;28;20495;-85
2021/08/25 06:58:24;;;;;;;5.53;2.95;;;23.50;57.50;;;;;;3135989;28;20049;-85
2021/08/25 06:59:56;;;;;;;10.50;3.10;;;23.50;57.60;;;;;;3136121;28;20551;-86
2021/08/25 07:01:28;;;;;;;6.18;2.80;;;23.50;57.70;;;;;;3133562;28;20044;-88
2021/08/25 07:03:00;;;;;;;6.57;2.58;;;23.40;58.00;;;;;;3124245;28;20115;-85
2021/08/25 07:04:35;;;;;;;8.13;2.80;;;23.40;58.10;;;;;;3124110;28;20045;-85
2021/08/25 07:06:06;;;;;;;5.20;2.58;;;23.40;58.10;;;;;;3132706;28;20053;-86
2021/08/25 07:07:40;;;;;;;6.60;2.50;;;23.40;58.10;;;;;;3136503;28;20071;-85
2021/08/25 07:09:12;;;;;;;9.70;2.97;;;23.30;58.10;;;;;;3136105;28;20049;-84
2021/08/25 07:10:43;;;;;;;5.95;2.67;;;23.30;58.40;;;;;;3135677;28;20045;-84
2021/08/25 07:12:15;;;;;;;6.65;2.30;;;23.30;59.30;;;;;;3136440;28;20071;-85
2021/08/25 07:13:47;;;;;;;6.70;2.63;;;23.30;58.60;;;;;;3133633;28;20096;-85
2021/08/25 07:15:19;;;;;;;5.85;2.55;;;23.40;58.70;;;;;;3122691;28;20409;-85
2021/08/25 07:16:51;;;;;;;8.10;2.80;;;23.40;58.80;;;;;;3123901;28;20598;-86
2021/08/25 07:18:22;;;;;;;5.97;2.17;;;23.40;58.70;;;;;;3123660;28;20266;-84
2021/08/25 07:19:54;;;;;;;4.03;2.33;;;23.40;58.70;;;;;;3120410;28;20459;-85
2021/08/25 07:21:26;;;;;;;5.80;2.30;;;23.40;58.70;;;;;;3122876;28;20049;-85
2021/08/25 07:22:59;;;;;;;5.13;2.42;;;23.40;58.50;;;;;;3123859;28;20041;-85
2021/08/25 07:24:32;;;;;;;7.95;2.53;;;23.40;58.70;;;;;;3123811;28;20138;-85
2021/08/25 07:26:04;;;;;;;6.43;2.30;;;23.30;58.70;;;;;;3123110;28;20461;-84
2021/08/25 07:27:36;;;;;;;7.20;2.17;;;23.30;58.90;;;;;;3123753;28;20432;-85
2021/08/25 07:29:08;;;;;;;10.90;2.30;;;23.30;59.10;;;;;;3123045;28;20053;-85
2021/08/25 07:30:39;;;;;;;4.68;2.00;;;23.30;59.20;;;;;;3122518;28;20099;-83
2021/08/25 07:32:14;;;;;;;8.95;2.60;;;23.30;59.20;;;;;;3122974;28;20432;-84
2021/08/25 07:33:49;;;;;;;8.55;2.30;;;23.30;59.10;;;;;;3123301;28;20508;-85
2021/08/25 07:35:29;;;;;;;14.70;2.35;;;23.20;59.40;;;;;;3122478;28;20098;-85
2021/08/25 07:37:02;;;;;;;10.43;2.00;;;23.20;59.50;;;;;;3123591;28;20057;-85
2021/08/25 07:38:35;;;;;;;15.35;2.35;;;23.10;59.70;;;;;;3123385;28;20064;-85
2021/08/25 07:40:08;;;;;;;5.35;2.35;;;23.10;59.80;;;;;;3122972;28;20105;-85
2021/08/25 07:41:39;;;;;;;7.32;2.30;;;23.00;60.00;;;;;;3123559;28;20054;-84
2021/08/25 07:43:11;;;;;;;4.80;2.10;;;23.00;60.00;;;;;;3123503;28;20049;-84
2021/08/25 07:44:43;;;;;;;4.80;2.30;;;23.00;60.00;;;;;;3123582;28;20045;-85
2021/08/25 07:46:15;;;;;;;4.95;2.35;;;23.10;59.80;;;;;;3130677;28;20492;-84
2021/08/25 07:47:46;;;;;;;8.00;1.83;;;23.10;60.10;;;;;;3135410;28;20728;-84
2021/08/25 07:49:18;;;;;;;3.45;1.70;;;23.10;60.00;;;;;;3135426;28;20045;-86
2021/08/25 07:50:52;;;;;;;6.13;2.00;;;23.20;59.70;;;;;;3135132;28;20053;-84
2021/08/25 07:52:24;;;;;;;4.25;1.73;;;23.20;60.00;;;;;;3129704;28;20049;-83
2021/08/25 07:53:57;;;;;;;7.05;1.77;;;23.20;59.80;;;;;;3135988;28;20106;-84
2021/08/25 07:55:29;;;;;;;8.15;2.10;;;23.30;59.40;;;;;;3135523;28;20044;-84
2021/08/25 07:57:00;;;;;;;9.52;2.28;;;23.30;60.10;;;;;;3136006;28;20059;-86
2021/08/25 07:58:32;;;;;;;6.07;2.17;;;23.30;60.30;;;;;;3135635;28;20060;-84